Gloucester, Virginia
Current Conditions -  °F | °C
As of 8:35 AM on Friday 28 Nov 2014 (Local Time) from KW75 Reporting Station
Clear Clear  
Wind Chill: 27°   Ceiling: Unl
Heat Index: 35°   Visibility: 10mi
Dew Point: 24°   Wind: 10mph
Humidity: 64%   Direction: 310°NW
Pressure: 30.3"   Gusts: 16mph
Location:  37.41°N, 76.52°W
Report Text: KW75 281335Z AUTO 31009G14KT 10SM CLR 02/M04 A3030 RMK AO1 T00161045
Loading
Personal Weather Stations






























Interactive Weather Map New forecast layout! Learn more

10-Day Weather Forecast

Advertisements
Track Severe Weather on mobile